Extended Streamflow Prediction
Issued by NWS Lower Mississippi RFC

Home | Current Version | Previous Version | Text Only | Print | Product List | Glossary On
Versions: 1 2 3 4 5 6 7 8 9 10 11 12 13 14 15 16 17 18 19 20 21 22 23 24 25 26 27 28 29 30 31 32 33 34 35 36 37 38 39 40 41 42 43 44 45 46 47 48 49 50
250
FGUS64 KORN 071710
ESPORN

EXTENDED STREAMFLOW PREDICTION
NATIONAL WEATHER SERVICE RIVER FORECAST CENTER, SLIDELL, LA
1110 AM CST WED DEC 07 2016

   DATE   CPGM7 CIRI2 NMDM7 TPTT1 CRTM7 OSGA4 MEMT1 TRPM6 HEEA4
12-08-16   18.4  22.3  11.0  14.2  13.9   5.2   4.6  14.8   9.9
12-09-16   18.1  22.0  10.8  14.0  14.0   6.0   5.5  15.8  10.9
12-10-16   17.8  21.3  10.5  13.8  13.8   5.7   5.7  16.6  11.8
12-11-16   17.8  20.9   9.6  13.1  13.6   5.5   5.5  16.3  12.0
12-12-16   18.0  20.8   9.5  12.7  12.8   4.8   5.2  16.1  11.8
12-13-16   18.4  20.6   9.3  12.6  12.6   4.4   4.4  15.5  11.5
12-14-16   18.7  20.1   9.0  12.4  12.5   4.3   4.2  15.1  10.8
12-15-16   18.6  19.6   8.5  12.0  12.2   4.1   4.1  15.0  10.6
12-16-16   18.5  19.1   8.0  11.5  11.8   3.6   3.8  14.8  10.5
12-17-16   18.3  18.7   7.6  11.1  11.4   3.2   3.4  14.4  10.2
12-18-16   18.1  18.2   7.1  10.6  10.9   2.7   2.9  14.0   9.8
12-19-16   17.8  17.8   6.7  10.2  10.5   2.2   2.4  13.6   9.4
12-20-16   17.4  17.4   6.3   9.8  10.2   1.9   2.0  13.2   9.0
12-21-16   17.0  17.0   5.9   9.4   9.8   1.4   1.7  12.8   8.6
12-22-16   16.4  16.7   5.5   9.1   9.4   1.1   1.3  12.4   8.2
12-23-16   15.9  16.4   5.3   8.8   9.1   0.8   1.0  12.1   7.9
12-24-16   15.5  16.1   5.0   8.5   8.8   0.6   0.7  11.8   7.6
12-25-16   15.2  15.8   4.8   8.3   8.6   0.3   0.5  11.6   7.4
12-26-16   14.7  15.6   4.5   8.0   8.4   0.1   0.3  11.4   7.1
12-27-16   14.7  15.2   4.2   7.8   8.1  -0.1   0.0  11.2   6.9
12-28-16   14.1  14.9   4.0   7.5   7.9  -0.4  -0.2  11.0   6.7
12-29-16   13.6  14.6   3.7   7.3   7.7  -0.6  -0.4  10.8   6.5
12-30-16   13.0  14.3   3.4   7.0   7.4  -0.8  -0.6  10.6   6.3
12-31-16   12.5  13.9   3.2   6.8   7.1  -1.1  -0.9  10.3   6.1
01-01-17   12.0  13.7   2.9   6.5   6.9  -1.3  -1.1  10.1   5.9
01-02-17   11.5  13.5   2.7   6.2   6.7  -1.5  -1.3   9.9   5.7
01-03-17   11.1  13.3   2.4   6.0   6.4  -1.8  -1.5   9.7   5.5
01-04-17   10.8  13.0   2.2   5.8   6.2  -2.0  -1.8   9.5   5.3

   DATE   ARSA4 GEEM6 VCKM6 NTZM6 RRLL1 BTRL1 DONL1 RRVL1 NORL1
12-08-16    7.8  16.9  11.2  19.4  24.9  10.9   6.0   4.6   3.3
12-09-16    9.2  18.2  12.0  20.1  25.6  11.6   6.4   4.9   3.4
12-10-16   10.2  19.3  13.2  20.8  26.3  12.2   6.7   5.1   3.4
12-11-16   11.0  20.2  14.3  22.0  26.9  12.9   7.2   5.4   3.8
12-12-16   11.1  20.8  15.2  23.0  28.0  13.9   7.9   5.8   4.1
12-13-16   10.9  20.6  15.7  23.8  29.0  14.6   8.4   6.1   4.3
12-14-16   10.7  20.4  15.5  24.4  29.7  15.4   9.0   6.6   4.5
12-15-16   10.0  19.9  15.3  24.2  30.2  15.8   9.4   6.9   4.7
12-16-16    9.9  19.6  14.8  24.0  30.0  15.8   9.5   7.1   4.9
12-17-16    9.8  19.5  14.5  23.5  29.8  15.6   9.5   7.2   5.0
12-18-16    9.5  19.3  14.4  23.2  29.3  15.3   9.4   7.1   5.1
12-19-16    9.1  19.0  14.3  23.1  29.0  15.1   9.2   6.9   5.1
12-20-16    8.7  18.6  13.9  22.9  28.9  15.0   9.0   6.9   5.0
12-21-16    8.3  18.2  13.6  22.6  28.7  14.9   9.0   6.8   4.9
12-22-16    8.0  17.9  13.2  22.3  28.4  14.6   8.8   6.7   4.9
12-23-16    7.7  17.5  12.9  21.9  28.0  14.3   8.7   6.6   4.8
12-24-16    7.3  17.2  12.5  21.6  27.7  14.0   8.5   6.5   4.7
12-25-16    7.1  16.9  12.2  21.3  27.3  13.7   8.3   6.4   4.6
12-26-16    6.9  16.7  11.9  21.0  27.0  13.5   8.1   6.3   4.6
12-27-16    6.7  16.5  11.7  20.7  26.7  13.2   8.0   6.1   4.5
12-28-16    6.5  16.3  11.5  20.5  26.4  12.9   7.8   6.0   4.4
12-29-16    6.3  16.1  11.4  20.3  26.2  12.7   7.6   5.9   4.3
12-30-16    6.1  15.9  11.2  20.1  26.0  12.5   7.5   5.8   4.3
12-31-16    5.9  15.8  11.0  20.0  25.8  12.3   7.3   5.7   4.2
01-01-17    5.7  15.6  10.8  19.8  25.7  12.2   7.2   5.6   4.1
01-02-17    5.5  15.4  10.6  19.6  25.5  12.0   7.1   5.5   4.1
01-03-17    5.3  15.2  10.4  19.4  25.3  11.8   7.0   5.4   4.0
01-04-17    5.1  15.0  10.2  19.2  25.1  11.7   6.9   5.3   3.9

NOTE: STAGE FORECASTS ARE BASED ON FUTURE RAINFALL COVERING
THE NEXT 48 HOURS.

END ORN


$$





USA.gov is the U.S. government's official web portal to all federal, state and local government web resources and services.